Time;durP1;ratioP1;P1;durP2;ratioP2;P2;SDS_P1;SDS_P2;PMS_P1;PMS_P2;Temp;Humidity;BMP_temperature;BMP_pressure;BME280_temperature;BME280_humidity;BME280_pressure;Samples;Min_cycle;Max_cycle;Signal;HPM_P1;HPM_P2
2023/12/07 06:02:26;;;;;;;;;;;;;;;;;;5043070;23;20021;-52
2023/12/07 06:04:52;;;;;;;;;;;;;;;;;;4953314;29;20001;-51
2023/12/07 06:07:18;;;;;;;;;;;;;;;;;;4952322;28;20463;-51
2023/12/07 06:09:44;;;;;;;;;;;;;;;;;;4952007;28;19922;-53
2023/12/07 06:12:09;;;;;;;;;;;;;;;;;;4953871;29;19938;-50
2023/12/07 06:14:35;;;;;;;;;;;;;;;;;;4953886;29;19911;-51
2023/12/07 06:17:01;;;;;;;;;;;;;;;;;;4953793;28;20396;-53
2023/12/07 06:19:27;;;;;;;;;;;;;;;;;;4953699;29;19929;-50
2023/12/07 06:21:53;;;;;;;;;;;;;;;;;;4954467;29;20474;-52
2023/12/07 06:24:23;;;;;;;;;;;;;;;;;;4953807;29;19910;-52
2023/12/07 06:26:48;;;;;;;;;;;;;;;;;;4953148;28;19914;-53
2023/12/07 06:29:14;;;;;;;;;;;;;;;;;;4953608;29;19960;-52
2023/12/07 06:31:40;;;;;;;;;;;;;;;;;;4953563;29;19910;-52
2023/12/07 06:34:06;;;;;;;;;;;;;;;;;;4953200;28;19918;-52
2023/12/07 06:36:33;;;;;;;;;;;;;;;;;;4953010;28;19960;-52
2023/12/07 06:38:59;;;;;;;;;;;;;;;;;;4953383;29;19914;-52
2023/12/07 06:41:24;;;;;;;;;;;;;;;;;;4953942;29;19917;-48
2023/12/07 06:43:50;;;;;;;;;;;;;;;;;;4953168;29;19922;-50
2023/12/07 06:46:16;;;;;;;;;;;;;;;;;;4952405;28;19910;-52
2023/12/07 06:48:42;;;;;;;;;;;;;;;;;;4953175;29;19914;-48
2023/12/07 06:51:08;;;;;;;;;;;;;;;;;;4953255;29;19958;-52
2023/12/07 06:53:34;;;;;;;;;;;;;;;;;;4952865;29;19960;-51
2023/12/07 06:56:00;;;;;;;;;;;;;;;;;;4952352;28;19910;-48
2023/12/07 06:58:26;;;;;;;;;;;;;;;;;;4952461;28;19918;-50
2023/12/07 07:00:52;;;;;;;;;;;;;;;;;;4951852;28;19923;-50
2023/12/07 07:03:17;;;;;;;;;;;;;;;;;;4952445;29;19914;-53
2023/12/07 07:05:43;;;;;;;;;;;;;;;;;;4952595;29;20296;-50
2023/12/07 07:08:09;;;;;;;;;;;;;;;;;;4952485;29;20031;-52
2023/12/07 07:10:35;;;;;;;;;;;;;;;;;;4952552;29;19985;-51
2023/12/07 07:13:04;;;;;;;;;;;;;;;;;;4952135;28;19964;-51
2023/12/07 07:15:30;;;;;;;;;;;;;;;;;;4951844;28;19915;-50
2023/12/07 07:17:56;;;;;;;;;;;;;;;;;;4951978;28;19918;-50
2023/12/07 07:20:22;;;;;;;;;;;;;;;;;;4952264;28;19962;-51
2023/12/07 07:22:48;;;;;;;;;;;;;;;;;;4951104;28;19957;-51
2023/12/07 07:25:15;;;;;;;;;;;;;;;;;;4951961;28;19925;-51
2023/12/07 07:27:41;;;;;;;;;;;;;;;;;;4952117;28;19922;-49
2023/12/07 07:30:08;;;;;;;;;;;;;;;;;;4952399;29;19914;-53
2023/12/07 07:32:34;;;;;;;;;;;;;;;;;;4951783;28;20009;-53
2023/12/07 07:34:59;;;;;;;;;;;;;;;;;;4952393;29;19989;-50
2023/12/07 07:37:25;;;;;;;;;;;;;;;;;;4953004;29;20350;-53
2023/12/07 07:39:51;;;;;;;;;;;;;;;;;;4952575;29;19910;-50
2023/12/07 07:42:17;;;;;;;;;;;;;;;;;;4951457;28;20746;-51
2023/12/07 07:44:43;;;;;;;;;;;;;;;;;;4952451;29;19946;-53
2023/12/07 07:47:09;;;;;;;;;;;;;;;;;;4951975;28;20282;-52
2023/12/07 07:49:35;;;;;;;;;;;;;;;;;;4952204;29;19957;-52
2023/12/07 07:52:01;;;;;;;;;;;;;;;;;;4951876;28;19952;-53
2023/12/07 07:54:26;;;;;;;;;;;;;;;;;;4952515;29;19945;-52
2023/12/07 07:56:52;;;;;;;;;;;;;;;;;;4951720;28;20012;-52
2023/12/07 07:59:18;;;;;;;;;;;;;;;;;;4951740;29;19919;-52
2023/12/07 08:01:46;;;;;;;;;;;;;;;;;;4951370;29;19958;-49
2023/12/07 08:04:12;;;;;;;;;;;;;;;;;;4952123;29;19911;-51
2023/12/07 08:06:38;;;;;;;;;;;;;;;;;;4950425;28;19978;-52
2023/12/07 08:09:04;;;;;;;;;;;;;;;;;;4951176;28;19960;-52
2023/12/07 08:11:30;;;;;;;;;;;;;;;;;;4950982;28;20373;-52
2023/12/07 08:13:55;;;;;;;;;;;;;;;;;;4950465;28;19914;-51
2023/12/07 08:16:21;;;;;;;;;;;;;;;;;;4950017;28;20365;-52
2023/12/07 08:18:47;;;;;;;;;;;;;;;;;;4950020;28;19957;-53
2023/12/07 08:21:13;;;;;;;;;;;;;;;;;;4951640;29;19914;-53
2023/12/07 08:23:40;;;;;;;;;;;;;;;;;;4950319;29;19918;-52
2023/12/07 08:26:06;;;;;;;;;;;;;;;;;;4948935;29;19957;-49
2023/12/07 08:28:32;;;;;;;;;;;;;;;;;;4932396;29;19945;-50
2023/12/07 08:30:58;;;;;;;;;;;;;;;;;;4941815;28;19915;-52
2023/12/07 08:33:24;;;;;;;;;;;;;;;;;;4945319;28;19965;-52
2023/12/07 08:35:54;;;;;;;;;;;;;;;;;;4959712;28;19976;-51
2023/12/07 08:38:21;;;;;;;;;;;;;;;;;;4970632;28;19921;-53
2023/12/07 08:40:47;;;;;;;;;;;;;;;;;;4935793;29;20325;-51
2023/12/07 08:43:13;;;;;;;;;;;;;;;;;;4951440;29;19930;-52
2023/12/07 08:45:39;;;;;;;;;;;;;;;;;;4950591;29;19914;-49
2023/12/07 08:48:05;;;;;;;;;;;;;;;;;;4951276;29;19910;-51
2023/12/07 08:50:31;;;;;;;;;;;;;;;;;;4951118;29;19965;-50
2023/12/07 08:52:57;;;;;;;;;;;;;;;;;;4957734;28;19954;-48
2023/12/07 08:55:22;;;;;;;;;;;;;;;;;;4950071;29;19915;-53
2023/12/07 08:57:48;;;;;;;;;;;;;;;;;;4950963;29;19922;-50
2023/12/07 09:00:14;;;;;;;;;;;;;;;;;;4950833;29;19946;-49
2023/12/07 09:02:40;;;;;;;;;;;;;;;;;;4940203;29;19918;-51
2023/12/07 09:05:06;;;;;;;;;;;;;;;;;;4948179;29;20005;-51
2023/12/07 09:07:32;;;;;;;;;;;;;;;;;;4955611;28;20408;-51
2023/12/07 09:09:58;;;;;;;;;;;;;;;;;;4970669;28;19910;-50
2023/12/07 09:12:24;;;;;;;;;;;;;;;;;;4970589;28;19910;-51
2023/12/07 09:14:50;;;;;;;;;;;;;;;;;;4952318;28;19914;-53
2023/12/07 09:17:16;;;;;;;;;;;;;;;;;;4950913;29;19917;-52
2023/12/07 09:19:43;;;;;;;;;;;;;;;;;;4954046;28;19921;-50
2023/12/07 09:22:09;;;;;;;;;;;;;;;;;;4953211;28;19921;-49
2023/12/07 09:24:35;;;;;;;;;;;;;;;;;;4952496;28;19929;-53
2023/12/07 09:27:01;;;;;;;;;;;;;;;;;;4956252;28;20305;-52
2023/12/07 09:29:27;;;;;;;;;;;;;;;;;;4956133;28;19918;-50
2023/12/07 09:31:53;;;;;;;;;;;;;;;;;;4954057;28;20466;-52
2023/12/07 09:34:19;;;;;;;;;;;;;;;;;;4956848;28;19911;-49
2023/12/07 09:36:45;;;;;;;;;;;;;;;;;;4954789;28;19914;-50
2023/12/07 09:39:10;;;;;;;;;;;;;;;;;;4956558;28;19923;-51
2023/12/07 09:41:36;;;;;;;;;;;;;;;;;;4955818;29;20009;-50
2023/12/07 09:44:03;;;;;;;;;;;;;;;;;;4956879;29;19989;-52
2023/12/07 09:46:29;;;;;;;;;;;;;;;;;;4956064;28;20602;-50
2023/12/07 09:48:55;;;;;;;;;;;;;;;;;;4958914;28;19910;-49
2023/12/07 09:51:21;;;;;;;;;;;;;;;;;;4975645;28;19914;-52
2023/12/07 09:56:25;;;;;;;;;;;;;;;;;;5391266;23;19930;-46
2023/12/07 09:58:51;;;;;;;;;;;;;;;;;;4957288;28;19937;-45
2023/12/07 10:01:17;;;;;;;;;;;;;;;;;;4956726;28;19918;-46
2023/12/07 10:03:46;;;;;;;;;;;;;;;;;;4957524;29;19914;-48
2023/12/07 10:06:12;;;;;;;;;;;;;;;;;;4953298;28;19918;-46
2023/12/07 10:08:38;;;;;;;;;;;;;;;;;;4954502;29;20418;-48
2023/12/07 10:11:04;;;;;;;;;;;;;;;;;;4939296;29;19953;-48
2023/12/07 10:13:30;;;;;;;;;;;;;;;;;;4945170;28;19941;-45
2023/12/07 10:15:56;;;;;;;;;;;;;;;;;;4954956;28;20310;-49
2023/12/07 10:18:22;;;;;;;;;;;;;;;;;;4946363;28;19968;-45
2023/12/07 10:20:48;;;;;;;;;;;;;;;;;;4955594;29;20828;-48
2023/12/07 10:23:17;;;;;;;;;;;;;;;;;;4957300;28;19917;-47
2023/12/07 10:25:43;;;;;;;;;;;;;;;;;;4955704;28;19915;-47
2023/12/07 10:28:11;;;;;;;;;;;;;;;;;;4955293;28;19921;-49
2023/12/07 10:30:37;;;;;;;;;;;;;;;;;;4953717;28;20436;-45
2023/12/07 10:33:03;;;;;;;;;;;;;;;;;;4956570;28;19914;-47
2023/12/07 10:35:29;;;;;;;;;;;;;;;;;;4951673;28;19970;-46
2023/12/07 10:37:55;;;;;;;;;;;;;;;;;;4953202;28;20341;-49
2023/12/07 10:40:21;;;;;;;;;;;;;;;;;;4945677;28;19957;-49
2023/12/07 10:42:47;;;;;;;;;;;;;;;;;;4944146;28;20428;-45
2023/12/07 10:45:15;;;;;;;;;;;;;;;;;;4954052;29;19970;-49
2023/12/07 10:47:41;;;;;;;;;;;;;;;;;;4948721;28;19963;-48
2023/12/07 10:50:10;;;;;;;;;;;;;;;;;;4953537;28;19918;-48
2023/12/07 10:52:37;;;;;;;;;;;;;;;;;;4953557;28;19921;-46
2023/12/07 10:55:03;;;;;;;;;;;;;;;;;;4954213;29;19985;-45
2023/12/07 10:57:29;;;;;;;;;;;;;;;;;;4956911;28;19925;-47
2023/12/07 10:59:55;;;;;;;;;;;;;;;;;;4972897;28;19922;-49
2023/12/07 11:02:21;;;;;;;;;;;;;;;;;;4973262;28;20301;-45
2023/12/07 11:04:47;;;;;;;;;;;;;;;;;;4937323;28;20005;-46
2023/12/07 11:07:13;;;;;;;;;;;;;;;;;;4946653;28;19925;-46
2023/12/07 11:09:39;;;;;;;;;;;;;;;;;;4950571;28;19949;-46
2023/12/07 11:12:05;;;;;;;;;;;;;;;;;;4951840;28;19915;-46
2023/12/07 11:14:31;;;;;;;;;;;;;;;;;;4952590;29;19914;-46
2023/12/07 11:16:58;;;;;;;;;;;;;;;;;;4944778;28;19915;-45
2023/12/07 11:19:24;;;;;;;;;;;;;;;;;;4935118;29;19922;-45
2023/12/07 11:21:50;;;;;;;;;;;;;;;;;;4934333;29;19915;-49
2023/12/07 11:24:16;;;;;;;;;;;;;;;;;;4934871;28;19914;-45
2023/12/07 11:26:42;;;;;;;;;;;;;;;;;;4936990;28;19957;-46
2023/12/07 11:29:08;;;;;;;;;;;;;;;;;;4953174;29;19914;-47
2023/12/07 11:31:34;;;;;;;;;;;;;;;;;;4952657;28;19945;-47
2023/12/07 11:34:00;;;;;;;;;;;;;;;;;;4951335;28;19969;-46
2023/12/07 11:36:25;;;;;;;;;;;;;;;;;;4951633;28;19915;-48
2023/12/07 11:38:51;;;;;;;;;;;;;;;;;;4951457;29;20397;-48
2023/12/07 11:41:17;;;;;;;;;;;;;;;;;;4951916;28;19938;-46
2023/12/07 11:43:46;;;;;;;;;;;;;;;;;;4952714;29;19965;-48
2023/12/07 11:46:12;;;;;;;;;;;;;;;;;;4952114;28;20259;-46
2023/12/07 11:48:38;;;;;;;;;;;;;;;;;;4952505;28;19911;-46
2023/12/07 11:51:04;;;;;;;;;;;;;;;;;;4947572;28;19921;-49
2023/12/07 11:53:30;;;;;;;;;;;;;;;;;;4941575;29;20447;-45
2023/12/07 11:55:57;;;;;;;;;;;;;;;;;;4952733;29;19919;-49
2023/12/07 11:58:23;;;;;;;;;;;;;;;;;;4950790;28;19964;-46
2023/12/07 12:00:49;;;;;;;;;;;;;;;;;;4950274;28;19918;-46
2023/12/07 12:03:14;;;;;;;;;;;;;;;;;;4934238;28;20387;-47
2023/12/07 12:05:40;;;;;;;;;;;;;;;;;;4949537;29;19918;-46
2023/12/07 12:08:06;;;;;;;;;;;;;;;;;;4951705;29;19915;-46
2023/12/07 12:10:32;;;;;;;;;;;;;;;;;;4951631;28;19965;-49
2023/12/07 12:12:58;;;;;;;;;;;;;;;;;;4951931;28;20325;-44
2023/12/07 12:15:24;;;;;;;;;;;;;;;;;;4952529;28;19914;-43
2023/12/07 12:17:50;;;;;;;;;;;;;;;;;;4938885;29;19918;-45
2023/12/07 12:20:17;;;;;;;;;;;;;;;;;;4939299;28;19915;-46
2023/12/07 12:22:43;;;;;;;;;;;;;;;;;;4951559;29;20702;-47
2023/12/07 12:25:08;;;;;;;;;;;;;;;;;;4952143;29;19911;-48
2023/12/07 12:27:34;;;;;;;;;;;;;;;;;;4948212;29;19915;-44
2023/12/07 12:30:00;;;;;;;;;;;;;;;;;;4950683;29;19976;-44
2023/12/07 12:32:26;;;;;;;;;;;;;;;;;;4952912;29;19910;-44
2023/12/07 12:34:52;;;;;;;;;;;;;;;;;;4952072;29;19910;-46
2023/12/07 12:37:18;;;;;;;;;;;;;;;;;;4951723;29;20857;-44
2023/12/07 12:39:44;;;;;;;;;;;;;;;;;;4941312;28;19926;-45
2023/12/07 12:42:11;;;;;;;;;;;;;;;;;;4951340;28;19965;-47
2023/12/07 12:44:38;;;;;;;;;;;;;;;;;;4951303;29;20005;-44
2023/12/07 12:47:04;;;;;;;;;;;;;;;;;;4951999;29;19911;-45
2023/12/07 12:49:29;;;;;;;;;;;;;;;;;;4951077;29;19925;-47
2023/12/07 12:51:55;;;;;;;;;;;;;;;;;;4952537;29;19949;-44
2023/12/07 12:54:21;;;;;;;;;;;;;;;;;;4950318;29;19914;-44
2023/12/07 12:56:47;;;;;;;;;;;;;;;;;;4934723;29;19934;-47
2023/12/07 12:59:13;;;;;;;;;;;;;;;;;;4935273;29;19924;-46
2023/12/07 13:01:39;;;;;;;;;;;;;;;;;;4948659;29;20291;-46
2023/12/07 13:04:05;;;;;;;;;;;;;;;;;;4949838;29;19918;-46
2023/12/07 13:06:31;;;;;;;;;;;;;;;;;;4949640;29;19910;-45
2023/12/07 13:08:57;;;;;;;;;;;;;;;;;;4950516;29;19918;-47
2023/12/07 13:11:23;;;;;;;;;;;;;;;;;;4949510;29;20392;-43
2023/12/07 13:13:49;;;;;;;;;;;;;;;;;;4949967;29;19910;-45
2023/12/07 13:16:15;;;;;;;;;;;;;;;;;;4949747;29;20389;-45
2023/12/07 13:18:41;;;;;;;;;;;;;;;;;;4949645;29;19922;-45
2023/12/07 13:21:09;;;;;;;;;;;;;;;;;;4949638;29;20318;-43
2023/12/07 13:23:35;;;;;;;;;;;;;;;;;;4949401;29;19938;-44
2023/12/07 13:26:01;;;;;;;;;;;;;;;;;;4949717;29;19966;-46
2023/12/07 13:28:27;;;;;;;;;;;;;;;;;;4950074;29;19911;-48
2023/12/07 13:30:54;;;;;;;;;;;;;;;;;;4950026;29;19966;-45
2023/12/07 13:33:20;;;;;;;;;;;;;;;;;;4949451;29;20023;-44
2023/12/07 13:35:46;;;;;;;;;;;;;;;;;;4949278;29;19910;-47
2023/12/07 13:38:12;;;;;;;;;;;;;;;;;;4949125;29;19961;-46
2023/12/07 13:40:37;;;;;;;;;;;;;;;;;;4949216;29;20328;-45
2023/12/07 13:43:03;;;;;;;;;;;;;;;;;;4949441;29;19911;-45
2023/12/07 13:45:29;;;;;;;;;;;;;;;;;;4949313;29;20290;-45
2023/12/07 13:47:55;;;;;;;;;;;;;;;;;;4949847;29;19946;-47
2023/12/07 13:50:22;;;;;;;;;;;;;;;;;;4949242;29;20532;-46
2023/12/07 13:52:48;;;;;;;;;;;;;;;;;;4949103;29;19942;-48
2023/12/07 13:55:14;;;;;;;;;;;;;;;;;;4949232;29;19953;-45
2023/12/07 13:57:40;;;;;;;;;;;;;;;;;;4949047;29;20059;-45
2023/12/07 14:00:05;;;;;;;;;;;;;;;;;;4949269;29;19953;-48
2023/12/07 14:02:31;;;;;;;;;;;;;;;;;;4949174;29;19969;-44
2023/12/07 14:04:57;;;;;;;;;;;;;;;;;;4949901;29;19980;-43
2023/12/07 14:07:23;;;;;;;;;;;;;;;;;;4949537;29;19918;-45
2023/12/07 14:09:51;;;;;;;;;;;;;;;;;;4948412;28;20176;-45
2023/12/07 14:12:17;;;;;;;;;;;;;;;;;;4952938;29;19910;-46
2023/12/07 14:14:44;;;;;;;;;;;;;;;;;;4952851;29;20341;-45
2023/12/07 14:17:10;;;;;;;;;;;;;;;;;;4952615;29;20455;-43
2023/12/07 14:19:37;;;;;;;;;;;;;;;;;;4952722;29;19914;-46
2023/12/07 14:22:03;;;;;;;;;;;;;;;;;;4952394;29;19950;-44
2023/12/07 14:24:30;;;;;;;;;;;;;;;;;;4952598;29;20334;-46
2023/12/07 14:26:56;;;;;;;;;;;;;;;;;;4953162;29;20390;-48
2023/12/07 14:29:22;;;;;;;;;;;;;;;;;;4952468;29;19938;-45
2023/12/07 14:31:48;;;;;;;;;;;;;;;;;;4952441;29;19918;-47
2023/12/07 14:34:14;;;;;;;;;;;;;;;;;;4952303;29;19910;-44
2023/12/07 14:36:41;;;;;;;;;;;;;;;;;;4952083;29;20464;-45
2023/12/07 14:39:07;;;;;;;;;;;;;;;;;;4952293;29;19938;-46
2023/12/07 14:41:33;;;;;;;;;;;;;;;;;;4952385;29;20393;-47
2023/12/07 14:43:59;;;;;;;;;;;;;;;;;;4952113;29;19917;-45
2023/12/07 14:46:25;;;;;;;;;;;;;;;;;;4952940;29;19911;-47
2023/12/07 14:48:51;;;;;;;;;;;;;;;;;;4951770;29;20030;-44
2023/12/07 14:51:17;;;;;;;;;;;;;;;;;;4951921;29;20360;-47
2023/12/07 14:53:43;;;;;;;;;;;;;;;;;;4951871;29;20147;-46
2023/12/07 14:56:08;;;;;;;;;;;;;;;;;;4951878;29;20290;-44
2023/12/07 14:58:39;;;;;;;;;;;;;;;;;;4951679;29;19961;-43
2023/12/07 15:01:05;;;;;;;;;;;;;;;;;;4951960;29;19918;-47
2023/12/07 15:03:31;;;;;;;;;;;;;;;;;;4951748;29;19915;-45
2023/12/07 15:05:57;;;;;;;;;;;;;;;;;;4952478;29;19926;-45
2023/12/07 15:08:22;;;;;;;;;;;;;;;;;;4951738;29;20009;-46
2023/12/07 15:10:52;;;;;;;;;;;;;;;;;;4951698;29;19918;-47
2023/12/07 15:13:18;;;;;;;;;;;;;;;;;;4950498;29;20430;-47
2023/12/07 15:15:44;;;;;;;;;;;;;;;;;;4944032;28;19922;-45
2023/12/07 15:18:09;;;;;;;;;;;;;;;;;;4949453;28;19981;-44
2023/12/07 15:20:35;;;;;;;;;;;;;;;;;;4950002;29;19918;-44
2023/12/07 15:23:02;;;;;;;;;;;;;;;;;;4949290;28;19915;-46
2023/12/07 15:25:29;;;;;;;;;;;;;;;;;;4947988;28;20433;-46
2023/12/07 15:27:54;;;;;;;;;;;;;;;;;;4951135;28;20317;-48
2023/12/07 15:30:23;;;;;;;;;;;;;;;;;;4951767;28;19919;-44
2023/12/07 15:32:49;;;;;;;;;;;;;;;;;;4950135;29;19921;-44
2023/12/07 15:35:15;;;;;;;;;;;;;;;;;;4949049;29;20005;-44
2023/12/07 15:37:41;;;;;;;;;;;;;;;;;;4950719;29;20460;-45
2023/12/07 15:40:09;;;;;;;;;;;;;;;;;;4921658;29;20618;-46
2023/12/07 15:42:35;;;;;;;;;;;;;;;;;;4946117;29;19937;-47
2023/12/07 15:45:01;;;;;;;;;;;;;;;;;;4951050;29;19990;-45
2023/12/07 15:47:27;;;;;;;;;;;;;;;;;;4952964;29;19921;-45
2023/12/07 15:49:53;;;;;;;;;;;;;;;;;;4950158;29;19914;-47
2023/12/07 15:52:19;;;;;;;;;;;;;;;;;;4948090;29;19945;-44
2023/12/07 15:54:45;;;;;;;;;;;;;;;;;;4952120;29;19911;-44
2023/12/07 15:57:11;;;;;;;;;;;;;;;;;;4951504;29;20001;-46
2023/12/07 15:59:37;;;;;;;;;;;;;;;;;;4926497;29;19919;-47
2023/12/07 16:02:04;;;;;;;;;;;;;;;;;;4948640;29;19914;-44
2023/12/07 16:04:30;;;;;;;;;;;;;;;;;;4944818;29;19919;-47
2023/12/07 16:06:56;;;;;;;;;;;;;;;;;;4952340;29;19973;-44
2023/12/07 16:09:22;;;;;;;;;;;;;;;;;;4950827;29;19911;-44
2023/12/07 16:11:47;;;;;;;;;;;;;;;;;;4955435;28;19965;-47
2023/12/07 16:14:13;;;;;;;;;;;;;;;;;;4953088;28;20453;-45
2023/12/07 16:16:39;;;;;;;;;;;;;;;;;;4951376;29;19915;-43
2023/12/07 16:19:05;;;;;;;;;;;;;;;;;;4944443;29;19919;-44
2023/12/07 16:21:31;;;;;;;;;;;;;;;;;;4932413;29;19950;-46
2023/12/07 16:23:57;;;;;;;;;;;;;;;;;;4942874;29;20342;-44
2023/12/07 16:26:23;;;;;;;;;;;;;;;;;;4939210;29;19998;-45
2023/12/07 16:28:49;;;;;;;;;;;;;;;;;;4932287;29;19915;-48
2023/12/07 16:31:15;;;;;;;;;;;;;;;;;;4932037;29;19910;-48
2023/12/07 16:33:42;;;;;;;;;;;;;;;;;;4931507;29;19958;-43
2023/12/07 16:36:08;;;;;;;;;;;;;;;;;;4932101;29;19918;-46
2023/12/07 16:38:34;;;;;;;;;;;;;;;;;;4940918;29;19919;-44
2023/12/07 16:41:01;;;;;;;;;;;;;;;;;;4950149;29;19914;-46
2023/12/07 16:43:27;;;;;;;;;;;;;;;;;;4951912;29;19983;-47
2023/12/07 16:45:52;;;;;;;;;;;;;;;;;;4950056;29;19910;-44
2023/12/07 16:48:18;;;;;;;;;;;;;;;;;;4932595;28;19923;-45
2023/12/07 16:50:44;;;;;;;;;;;;;;;;;;4931685;29;19911;-45
2023/12/07 16:53:13;;;;;;;;;;;;;;;;;;4936311;28;19918;-44
2023/12/07 16:55:39;;;;;;;;;;;;;;;;;;4941149;28;19914;-46
2023/12/07 16:58:05;;;;;;;;;;;;;;;;;;4950705;28;19925;-43
2023/12/07 17:00:32;;;;;;;;;;;;;;;;;;4949794;28;19970;-43
2023/12/07 17:02:57;;;;;;;;;;;;;;;;;;4951595;29;19919;-44
2023/12/07 17:05:23;;;;;;;;;;;;;;;;;;4951198;28;19914;-44
2023/12/07 17:07:49;;;;;;;;;;;;;;;;;;4946903;29;19922;-44
2023/12/07 17:10:15;;;;;;;;;;;;;;;;;;4932507;29;20025;-44
2023/12/07 17:12:41;;;;;;;;;;;;;;;;;;4952573;28;19922;-47
2023/12/07 17:15:07;;;;;;;;;;;;;;;;;;4961515;28;20278;-43
2023/12/07 17:17:33;;;;;;;;;;;;;;;;;;4950706;29;19936;-46
2023/12/07 17:19:59;;;;;;;;;;;;;;;;;;4951337;28;19977;-45
2023/12/07 17:22:24;;;;;;;;;;;;;;;;;;4952121;28;20009;-44
2023/12/07 17:24:50;;;;;;;;;;;;;;;;;;4952395;28;19918;-45
2023/12/07 17:27:16;;;;;;;;;;;;;;;;;;4951125;28;20393;-46
2023/12/07 17:29:42;;;;;;;;;;;;;;;;;;4950342;29;20332;-48
2023/12/07 17:32:08;;;;;;;;;;;;;;;;;;4949652;29;19936;-46
2023/12/07 17:34:34;;;;;;;;;;;;;;;;;;4950403;29;19911;-46
2023/12/07 17:37:02;;;;;;;;;;;;;;;;;;4950338;29;19921;-45
2023/12/07 17:39:28;;;;;;;;;;;;;;;;;;4934072;28;19918;-44
2023/12/07 17:41:54;;;;;;;;;;;;;;;;;;4930450;29;20370;-47
2023/12/07 17:44:20;;;;;;;;;;;;;;;;;;4944611;29;19922;-47
2023/12/07 17:46:46;;;;;;;;;;;;;;;;;;4952585;28;19922;-45
2023/12/07 17:49:12;;;;;;;;;;;;;;;;;;4952631;29;19923;-48
2023/12/07 17:51:38;;;;;;;;;;;;;;;;;;4953875;29;19926;-46
2023/12/07 17:54:04;;;;;;;;;;;;;;;;;;4954300;29;20297;-44
2023/12/07 17:56:30;;;;;;;;;;;;;;;;;;4953514;29;19953;-46
2023/12/07 17:58:56;;;;;;;;;;;;;;;;;;4950698;29;20032;-46
2023/12/07 18:01:21;;;;;;;;;;;;;;;;;;4934655;29;19917;-46
2023/12/07 18:03:47;;;;;;;;;;;;;;;;;;4939283;29;19942;-48
2023/12/07 18:06:13;;;;;;;;;;;;;;;;;;4950627;28;20009;-44
2023/12/07 18:08:39;;;;;;;;;;;;;;;;;;4946027;28;19914;-45
2023/12/07 18:11:05;;;;;;;;;;;;;;;;;;4934066;28;19914;-44
2023/12/07 18:13:32;;;;;;;;;;;;;;;;;;4948092;28;20290;-45
2023/12/07 18:15:58;;;;;;;;;;;;;;;;;;4949904;28;20404;-44
2023/12/07 18:18:24;;;;;;;;;;;;;;;;;;4946961;29;19919;-44
2023/12/07 18:20:50;;;;;;;;;;;;;;;;;;4949744;29;19941;-44
2023/12/07 18:23:16;;;;;;;;;;;;;;;;;;4948115;29;19922;-44
2023/12/07 18:25:42;;;;;;;;;;;;;;;;;;4933206;29;19918;-44
2023/12/07 18:28:08;;;;;;;;;;;;;;;;;;4940792;29;19918;-44
2023/12/07 18:30:33;;;;;;;;;;;;;;;;;;4952237;29;19911;-46
2023/12/07 18:33:00;;;;;;;;;;;;;;;;;;4950493;29;19919;-44
2023/12/07 18:35:25;;;;;;;;;;;;;;;;;;4945484;29;20385;-48
2023/12/07 18:37:51;;;;;;;;;;;;;;;;;;4951387;28;19997;-45
2023/12/07 18:40:17;;;;;;;;;;;;;;;;;;4951716;28;19914;-47
2023/12/07 18:42:43;;;;;;;;;;;;;;;;;;4952317;29;19910;-44
2023/12/07 18:45:09;;;;;;;;;;;;;;;;;;4952406;29;20265;-45
2023/12/07 18:47:35;;;;;;;;;;;;;;;;;;4952016;29;19952;-46
2023/12/07 18:50:01;;;;;;;;;;;;;;;;;;4943419;28;19938;-46
2023/12/07 18:52:28;;;;;;;;;;;;;;;;;;4950791;28;19930;-44
2023/12/07 18:54:54;;;;;;;;;;;;;;;;;;4949998;28;20421;-46
2023/12/07 18:57:20;;;;;;;;;;;;;;;;;;4947830;28;19953;-45
2023/12/07 18:59:46;;;;;;;;;;;;;;;;;;4949124;28;20400;-45
2023/12/07 19:02:13;;;;;;;;;;;;;;;;;;4944736;29;19922;-47
2023/12/07 19:04:39;;;;;;;;;;;;;;;;;;4942081;29;20013;-45
2023/12/07 19:07:05;;;;;;;;;;;;;;;;;;4946966;28;20424;-45
2023/12/07 19:09:30;;;;;;;;;;;;;;;;;;4948180;29;19914;-48
2023/12/07 19:11:56;;;;;;;;;;;;;;;;;;4945677;29;19923;-48
2023/12/07 19:14:22;;;;;;;;;;;;;;;;;;4946994;29;19914;-48
2023/12/07 19:16:48;;;;;;;;;;;;;;;;;;4946344;28;19918;-47
2023/12/07 19:19:14;;;;;;;;;;;;;;;;;;4944428;28;19919;-44
2023/12/07 19:21:40;;;;;;;;;;;;;;;;;;4940758;29;19992;-48
2023/12/07 19:24:06;;;;;;;;;;;;;;;;;;4942754;28;19930;-46
2023/12/07 19:26:32;;;;;;;;;;;;;;;;;;4944002;29;19921;-46
2023/12/07 19:29:01;;;;;;;;;;;;;;;;;;4946764;29;19942;-44
2023/12/07 19:31:27;;;;;;;;;;;;;;;;;;4947482;28;20397;-46
2023/12/07 19:33:53;;;;;;;;;;;;;;;;;;4942048;28;19960;-47
2023/12/07 19:36:18;;;;;;;;;;;;;;;;;;4946120;28;20401;-48
2023/12/07 19:38:44;;;;;;;;;;;;;;;;;;4944232;28;19918;-47
2023/12/07 19:41:11;;;;;;;;;;;;;;;;;;4943350;29;20313;-47
2023/12/07 19:43:36;;;;;;;;;;;;;;;;;;4947760;28;19915;-45
2023/12/07 19:46:03;;;;;;;;;;;;;;;;;;4947931;28;19946;-49
2023/12/07 19:48:28;;;;;;;;;;;;;;;;;;4945477;29;20026;-45
2023/12/07 19:50:54;;;;;;;;;;;;;;;;;;4931050;29;19989;-47
2023/12/07 19:53:20;;;;;;;;;;;;;;;;;;4939092;28;19914;-46
2023/12/07 19:55:46;;;;;;;;;;;;;;;;;;4946794;28;20429;-46
2023/12/07 19:58:12;;;;;;;;;;;;;;;;;;4948903;29;19922;-48
2023/12/07 20:00:39;;;;;;;;;;;;;;;;;;4947034;28;19910;-46
2023/12/07 20:03:05;;;;;;;;;;;;;;;;;;4938381;28;20361;-46
2023/12/07 20:05:31;;;;;;;;;;;;;;;;;;4941107;29;19957;-46
2023/12/07 20:07:58;;;;;;;;;;;;;;;;;;4946916;28;20005;-47
2023/12/07 20:10:24;;;;;;;;;;;;;;;;;;4946200;29;19910;-45
2023/12/07 20:12:50;;;;;;;;;;;;;;;;;;4929279;29;19918;-49
2023/12/07 20:15:16;;;;;;;;;;;;;;;;;;4949511;29;19910;-46
2023/12/07 20:17:42;;;;;;;;;;;;;;;;;;4948406;29;20376;-47
2023/12/07 20:20:08;;;;;;;;;;;;;;;;;;4948461;28;20267;-46
2023/12/07 20:22:34;;;;;;;;;;;;;;;;;;4947758;28;19985;-47
2023/12/07 20:24:59;;;;;;;;;;;;;;;;;;4933300;29;20398;-47
2023/12/07 20:27:25;;;;;;;;;;;;;;;;;;4948406;28;19915;-48
2023/12/07 20:29:52;;;;;;;;;;;;;;;;;;4947912;28;19999;-46
2023/12/07 20:32:18;;;;;;;;;;;;;;;;;;4945636;28;19915;-47
2023/12/07 20:34:44;;;;;;;;;;;;;;;;;;4946575;28;19942;-48
2023/12/07 20:37:10;;;;;;;;;;;;;;;;;;4946713;29;20394;-48
2023/12/07 20:39:36;;;;;;;;;;;;;;;;;;4948516;29;19919;-48
2023/12/07 20:42:01;;;;;;;;;;;;;;;;;;4948123;28;19941;-47
2023/12/07 20:44:27;;;;;;;;;;;;;;;;;;4945619;28;19926;-48
2023/12/07 20:46:53;;;;;;;;;;;;;;;;;;4942537;29;19918;-48
2023/12/07 20:49:19;;;;;;;;;;;;;;;;;;4947240;29;19970;-46
2023/12/07 20:51:45;;;;;;;;;;;;;;;;;;4946200;28;19917;-48
2023/12/07 20:54:11;;;;;;;;;;;;;;;;;;4945702;28;19914;-47
2023/12/07 20:56:41;;;;;;;;;;;;;;;;;;4940050;28;19926;-47
2023/12/07 20:59:06;;;;;;;;;;;;;;;;;;4942526;29;19926;-46
2023/12/07 21:01:32;;;;;;;;;;;;;;;;;;4945821;29;19969;-47
2023/12/07 21:03:58;;;;;;;;;;;;;;;;;;4947718;29;20001;-45
2023/12/07 21:06:24;;;;;;;;;;;;;;;;;;4948208;28;19914;-46
2023/12/07 21:08:50;;;;;;;;;;;;;;;;;;4939188;28;19919;-45
2023/12/07 21:11:16;;;;;;;;;;;;;;;;;;4928824;29;20181;-45
2023/12/07 21:13:42;;;;;;;;;;;;;;;;;;4932548;28;19921;-45
2023/12/07 21:16:08;;;;;;;;;;;;;;;;;;4943970;28;20032;-48
2023/12/07 21:18:34;;;;;;;;;;;;;;;;;;4929860;29;20476;-48
2023/12/07 21:21:00;;;;;;;;;;;;;;;;;;4942657;28;19918;-45
2023/12/07 21:23:26;;;;;;;;;;;;;;;;;;4940109;29;19915;-44
2023/12/07 21:25:52;;;;;;;;;;;;;;;;;;4947940;29;19933;-46
2023/12/07 21:28:18;;;;;;;;;;;;;;;;;;4947710;29;20844;-47
2023/12/07 21:30:44;;;;;;;;;;;;;;;;;;4947260;29;19915;-45
2023/12/07 21:33:09;;;;;;;;;;;;;;;;;;4936223;29;19919;-45
2023/12/07 21:35:35;;;;;;;;;;;;;;;;;;4945199;29;19914;-47
2023/12/07 21:38:01;;;;;;;;;;;;;;;;;;4944723;29;20316;-45
2023/12/07 21:40:27;;;;;;;;;;;;;;;;;;4946887;29;19950;-45
2023/12/07 21:42:53;;;;;;;;;;;;;;;;;;4947197;29;20366;-49
2023/12/07 21:45:19;;;;;;;;;;;;;;;;;;4939887;29;20405;-46
2023/12/07 21:47:45;;;;;;;;;;;;;;;;;;4946018;29;19973;-44
2023/12/07 21:50:11;;;;;;;;;;;;;;;;;;4943881;29;20378;-46
2023/12/07 21:52:37;;;;;;;;;;;;;;;;;;4945062;28;19914;-45
2023/12/07 21:55:03;;;;;;;;;;;;;;;;;;4947389;29;20004;-46
2023/12/07 21:57:28;;;;;;;;;;;;;;;;;;4946429;29;20013;-46
2023/12/07 21:59:54;;;;;;;;;;;;;;;;;;4948371;29;20304;-45
2023/12/07 22:02:20;;;;;;;;;;;;;;;;;;4947387;28;19918;-47
2023/12/07 22:04:46;;;;;;;;;;;;;;;;;;4946154;29;20381;-45
2023/12/07 22:07:12;;;;;;;;;;;;;;;;;;4945138;29;20013;-47
2023/12/07 22:09:38;;;;;;;;;;;;;;;;;;4942423;28;19945;-45
2023/12/07 22:12:04;;;;;;;;;;;;;;;;;;4941905;28;20417;-44
2023/12/07 22:14:30;;;;;;;;;;;;;;;;;;4944076;28;19918;-46
2023/12/07 22:16:56;;;;;;;;;;;;;;;;;;4945177;29;20382;-45
2023/12/07 22:19:22;;;;;;;;;;;;;;;;;;4932048;28;19946;-48
2023/12/07 22:21:48;;;;;;;;;;;;;;;;;;4936129;28;19914;-48
2023/12/07 22:24:13;;;;;;;;;;;;;;;;;;4948066;29;19910;-45
2023/12/07 22:26:40;;;;;;;;;;;;;;;;;;4946933;29;19962;-47
2023/12/07 22:29:06;;;;;;;;;;;;;;;;;;4947388;28;19910;-47
2023/12/07 22:31:32;;;;;;;;;;;;;;;;;;4948014;28;19921;-46
2023/12/07 22:33:58;;;;;;;;;;;;;;;;;;4951021;28;20444;-49
2023/12/07 22:36:24;;;;;;;;;;;;;;;;;;4944340;28;19965;-46
2023/12/07 22:38:50;;;;;;;;;;;;;;;;;;4932370;29;19926;-48
2023/12/07 22:41:16;;;;;;;;;;;;;;;;;;4930615;29;19911;-46